Time;durP1;ratioP1;P1;durP2;ratioP2;P2;SDS_P1;SDS_P2;PMS_P1;PMS_P2;Temp;Humidity;BMP_temperature;BMP_pressure;BME280_temperature;BME280_humidity;BME280_pressure;Samples;Min_cycle;Max_cycle;Signal;HPM_P1;HPM_P2
2021/12/01 00:02:02;;;;;;;5.32;4.07;;;5.30;99.90;;;6.23;100.00;100017.00;4899637;29;20429;-79
2021/12/01 00:04:29;;;;;;;6.18;3.65;;;5.20;99.90;;;6.24;100.00;100035.28;4882336;29;20056;-79
2021/12/01 00:06:56;;;;;;;5.20;3.97;;;5.20;99.90;;;6.48;100.00;100024.56;4898900;29;20477;-79
2021/12/01 00:09:23;;;;;;;5.80;3.95;;;5.10;99.90;;;6.14;100.00;100002.31;4869110;29;20052;-79
2021/12/01 00:11:50;;;;;;;7.72;4.85;;;5.20;99.90;;;6.10;100.00;99990.19;4880051;29;20055;-79
2021/12/01 00:14:17;;;;;;;4.97;4.28;;;5.50;99.90;;;6.18;100.00;99985.75;4879017;29;20071;-79
2021/12/01 00:16:44;;;;;;;5.70;3.92;;;5.00;99.90;;;6.19;100.00;99989.19;4880539;29;20048;-79
2021/12/01 00:19:11;;;;;;;5.43;3.88;;;5.20;99.90;;;6.10;100.00;99996.28;4848927;29;20052;-79
2021/12/01 00:21:38;;;;;;;6.07;4.00;;;5.10;99.90;;;6.20;100.00;99996.16;4880239;29;20044;-80
2021/12/01 00:24:05;;;;;;;5.07;3.70;;;5.10;99.90;;;6.19;100.00;99983.97;4879890;29;20076;-79
2021/12/01 00:26:33;;;;;;;5.13;3.25;;;7.40;99.90;;;6.10;100.00;100004.13;4881920;29;20119;-79
2021/12/01 00:29:00;;;;;;;7.97;5.45;;;5.20;99.90;;;6.24;100.00;99967.38;4882641;29;20063;-79
2021/12/01 00:31:27;;;;;;;5.72;3.70;;;5.30;99.90;;;6.23;100.00;99980.44;4868160;29;20408;-79
2021/12/01 00:33:56;;;;;;;7.80;4.20;;;6.40;99.90;;;6.48;100.00;99986.25;4899047;29;20052;-79
2021/12/01 00:36:23;;;;;;;4.40;3.67;;;6.00;99.90;;;6.47;100.00;99989.72;4883542;29;20051;-79
2021/12/01 00:38:50;;;;;;;5.93;3.60;;;5.20;99.90;;;6.38;100.00;99990.69;4882656;29;20058;-79
2021/12/01 00:41:20;;;;;;;5.20;3.72;;;5.30;99.90;;;6.37;100.00;99981.13;4882827;29;20046;-78
2021/12/01 00:43:49;;;;;;;5.32;3.60;;;6.90;99.90;;;6.40;100.00;99980.25;4898258;29;20126;-79
2021/12/01 00:46:24;;;;;;;5.88;3.67;;;5.40;99.90;;;6.45;100.00;99975.81;4892787;29;20049;-79
2021/12/01 00:48:52;;;;;;;4.50;3.25;;;5.40;99.90;;;6.57;100.00;99968.69;4880232;29;20047;-79
2021/12/01 00:51:19;;;;;;;6.93;4.32;;;5.70;99.90;;;6.45;100.00;99957.50;4863228;29;20453;-79
2021/12/01 00:53:46;;;;;;;7.60;4.70;;;7.40;99.90;;;6.72;100.00;99954.56;4848416;29;20056;-79
2021/12/01 00:56:13;;;;;;;3.80;3.40;;;5.30;99.90;;;6.73;100.00;99944.06;4863046;29;20052;-79
2021/12/01 00:58:40;;;;;;;3.92;3.42;;;7.00;99.90;;;6.66;100.00;99964.19;4863141;29;20056;-79
2021/12/01 01:01:07;;;;;;;4.72;3.20;;;5.50;99.90;;;6.47;100.00;99947.88;4896070;29;20490;-79
2021/12/01 01:03:35;;;;;;;7.85;2.78;;;5.40;99.90;;;6.45;100.00;99948.81;4878139;29;20139;-79
2021/12/01 01:06:02;;;;;;;4.05;2.80;;;5.40;99.90;;;6.60;100.00;99938.16;4863628;29;20053;-80
2021/12/01 01:08:30;;;;;;;3.90;3.53;;;5.40;99.90;;;6.48;100.00;99954.00;4892980;29;20079;-80
2021/12/01 01:16:24;;;;;;;3.65;2.95;;;5.30;99.90;;;6.62;100.00;99920.69;4904388;29;20059;-79
2021/12/01 01:19:04;;;;;;;7.07;3.50;;;5.50;99.90;;;6.69;100.00;99925.81;4901863;29;20068;-79
2021/12/01 01:21:38;;;;;;;4.40;3.25;;;5.50;99.90;;;6.76;100.00;99935.31;4886865;29;20052;-79
2021/12/01 01:24:06;;;;;;;3.88;3.13;;;5.50;99.90;;;6.67;100.00;99931.09;4885347;29;20055;-80
2021/12/01 01:26:35;;;;;;;4.00;2.90;;;5.50;99.90;;;6.78;100.00;99920.44;4900804;29;20067;-79
2021/12/01 01:29:04;;;;;;;4.28;3.15;;;5.50;99.90;;;6.67;100.00;99916.25;4885279;29;20463;-79
2021/12/01 01:31:31;;;;;;;4.95;3.38;;;7.70;99.90;;;6.61;100.00;99916.34;4902602;29;20055;-79
2021/12/01 01:33:58;;;;;;;3.63;2.92;;;6.10;99.90;;;6.68;100.00;99930.19;4886943;29;20086;-79
2021/12/01 01:36:27;;;;;;;5.38;3.42;;;5.50;99.90;;;7.15;100.00;99908.53;4901347;29;20409;-79
2021/12/01 01:38:56;;;;;;;6.30;3.50;;;5.60;99.90;;;7.01;100.00;99924.44;4885946;29;20052;-79
2021/12/01 01:41:24;;;;;;;4.30;2.88;;;5.50;99.90;;;7.09;100.00;99920.81;4870645;29;20058;-78
2021/12/01 01:43:51;;;;;;;3.67;2.95;;;7.00;99.90;;;6.66;100.00;99924.13;4885134;29;20044;-79
2021/12/01 01:46:19;;;;;;;5.07;3.05;;;5.60;99.90;;;6.62;100.00;99917.19;4885822;29;20040;-79
2021/12/01 01:48:54;;;;;;;5.97;3.22;;;5.60;99.90;;;6.62;100.00;99915.47;4885420;29;20075;-80
2021/12/01 01:51:25;;;;;;;4.90;3.10;;;5.60;99.90;;;6.70;100.00;99904.00;4877957;29;20067;-79
2021/12/01 01:53:54;;;;;;;4.38;3.08;;;5.30;99.90;;;7.18;100.00;99898.88;4875317;29;20138;-79
2021/12/01 01:56:22;;;;;;;3.85;2.78;;;5.70;99.90;;;7.14;100.00;99904.19;4870296;29;20528;-79
2021/12/01 01:58:50;;;;;;;3.10;2.78;;;7.30;99.90;;;7.11;100.00;99912.09;4901841;29;20063;-79
2021/12/01 02:04:06;;;;;;;5.55;3.30;;;5.60;99.90;;;7.06;100.00;99894.69;4887299;29;20056;-79
2021/12/01 02:06:33;;;;;;;4.18;3.17;;;5.70;99.90;;;6.81;100.00;99878.56;4899556;29;20048;-79
2021/12/01 02:09:06;;;;;;;7.22;3.38;;;7.20;99.90;;;6.49;100.00;99878.19;4848252;29;20052;-79
2021/12/01 02:11:33;;;;;;;3.85;3.17;;;5.60;99.90;;;6.45;100.00;99883.47;4859091;29;20072;-79
2021/12/01 02:14:01;;;;;;;4.75;3.13;;;6.60;99.90;;;6.64;100.00;99878.84;4866700;29;20060;-80
2021/12/01 02:16:28;;;;;;;5.65;3.50;;;5.50;99.90;;;6.52;100.00;99870.31;4882362;29;20068;-79
2021/12/01 02:18:55;;;;;;;7.68;3.20;;;5.40;99.90;;;6.52;100.00;99857.22;4851263;29;20135;-79
2021/12/01 02:21:29;;;;;;;4.47;2.72;;;7.50;99.90;;;6.55;100.00;99865.91;4881956;29;20040;-79
2021/12/01 02:24:07;;;;;;;4.95;3.33;;;5.50;99.90;;;6.52;100.00;99841.53;4881365;29;20421;-78
2021/12/01 02:26:41;;;;;;;4.93;3.28;;;6.40;99.90;;;6.58;100.00;99858.88;4867456;29;20061;-79
2021/12/01 02:29:13;;;;;;;3.75;2.90;;;5.50;99.90;;;6.46;100.00;99830.31;4867118;29;20480;-80
2021/12/01 02:31:43;;;;;;;6.85;3.40;;;5.30;99.90;;;6.54;100.00;99815.38;4917864;29;20044;-80
2021/12/01 02:34:17;;;;;;;;;;;5.50;99.90;;;6.64;100.00;99814.34;4901053;29;20040;-79
2021/12/01 02:36:49;;;;;;;6.20;4.13;;;7.80;99.90;;;6.52;100.00;99798.84;4901675;29;19927;-79
2021/12/01 02:39:17;;;;;;;3.50;2.90;;;5.30;99.90;;;6.63;100.00;99801.28;4900943;29;20412;-79
2021/12/01 02:41:50;;;;;;;5.43;2.80;;;5.50;99.90;;;6.66;100.00;99786.41;4883410;29;20161;-80
2021/12/01 02:44:17;;;;;;;4.22;2.85;;;3.30;99.90;;;6.68;100.00;99789.00;4866349;29;20045;-79
2021/12/01 02:46:45;;;;;;;3.92;2.78;;;6.40;99.90;;;6.84;100.00;99780.91;4866977;29;20048;-79
2021/12/01 02:49:12;;;;;;;3.33;2.80;;;8.10;99.90;;;6.90;100.00;99772.94;4881983;29;20055;-79
2021/12/01 02:51:40;;;;;;;5.10;2.60;;;7.00;99.90;;;6.90;100.00;99773.81;4866541;29;20052;-78
2021/12/01 02:54:08;;;;;;;3.03;2.53;;;5.60;99.90;;;6.97;100.00;99774.56;4881431;29;20063;-79
2021/12/01 02:56:36;;;;;;;5.35;3.10;;;5.60;99.90;;;6.96;100.00;99770.22;4866154;29;20053;-79
2021/12/01 02:59:05;;;;;;;4.43;2.70;;;5.60;99.90;;;7.15;100.00;99760.25;4882438;29;20049;-79
2021/12/01 03:01:32;;;;;;;3.88;2.83;;;5.70;99.90;;;7.24;100.00;99764.44;4866147;29;20048;-79
2021/12/01 03:04:00;;;;;;;4.93;2.83;;;5.60;99.90;;;7.20;100.00;99765.38;4880241;29;20052;-79
2021/12/01 03:06:28;;;;;;;4.50;2.55;;;8.20;99.90;;;7.37;100.00;99768.53;4866327;29;20455;-78
2021/12/01 03:08:57;;;;;;;2.40;2.20;;;5.80;99.90;;;6.94;100.00;99756.28;4865898;29;20044;-78
2021/12/01 03:11:25;;;;;;;4.05;2.55;;;5.80;99.90;;;6.92;100.00;99743.25;4866149;29;20041;-79
2021/12/01 03:13:53;;;;;;;4.70;2.53;;;7.60;99.90;;;7.02;100.00;99761.38;4880665;29;20057;-79
2021/12/01 03:16:22;;;;;;;3.57;2.70;;;7.50;99.90;;;6.97;100.00;99753.63;4881507;29;20113;-80
2021/12/01 03:18:50;;;;;;;4.97;2.05;;;6.50;99.90;;;6.95;100.00;99751.03;4902396;29;20092;-79
2021/12/01 03:21:18;;;;;;;2.75;2.13;;;5.80;99.90;;;6.92;100.00;99755.44;4882253;29;20044;-80
2021/12/01 03:23:45;;;;;;;3.55;2.20;;;5.90;99.90;;;7.01;100.00;99743.94;4865855;29;20150;-79
2021/12/01 03:26:12;;;;;;;3.40;2.20;;;6.00;99.90;;;6.92;100.00;99742.38;4866362;29;20510;-79
2021/12/01 03:28:39;;;;;;;3.88;2.38;;;7.80;99.90;;;6.95;100.00;99735.34;4881602;29;20045;-79
2021/12/01 03:31:07;;;;;;;3.38;2.45;;;7.10;99.90;;;7.08;100.00;99732.50;4881419;29;20064;-79
2021/12/01 03:33:34;;;;;;;4.30;2.70;;;8.10;99.90;;;6.92;100.00;99721.44;4880019;29;20087;-79
2021/12/01 03:36:02;;;;;;;2.92;2.42;;;6.00;99.90;;;7.33;100.00;99717.16;4879619;29;20050;-78
2021/12/01 03:38:29;;;;;;;3.97;2.47;;;5.90;99.90;;;6.85;100.00;99723.31;4864996;29;20458;-79
2021/12/01 03:40:58;;;;;;;6.40;2.63;;;5.90;99.90;;;6.94;100.00;99714.44;4881247;29;20631;-79
2021/12/01 03:43:26;;;;;;;3.20;2.40;;;6.00;99.90;;;6.91;100.00;99707.53;4880303;29;20052;-79
2021/12/01 03:45:54;;;;;;;4.90;2.30;;;6.60;99.90;;;7.10;100.00;99699.31;4881117;29;20051;-79
2021/12/01 03:48:22;;;;;;;3.28;2.53;;;6.00;99.90;;;7.04;100.00;99697.69;4880975;29;20048;-79
2021/12/01 03:50:52;;;;;;;8.38;2.75;;;6.00;99.90;;;7.11;100.00;99698.41;4898699;29;20052;-79
2021/12/01 03:53:22;;;;;;;4.55;2.55;;;5.90;99.90;;;7.16;100.00;99680.84;4883264;29;20052;-79
2021/12/01 03:55:50;;;;;;;3.47;2.33;;;5.90;99.90;;;7.17;100.00;99679.97;4884989;29;20409;-79
2021/12/01 03:58:17;;;;;;;5.03;2.53;;;6.00;99.90;;;7.14;100.00;99672.19;4868567;29;20143;-78
2021/12/01 04:00:44;;;;;;;4.43;2.85;;;5.90;99.90;;;7.57;100.00;99665.16;4899904;29;20056;-80
2021/12/01 04:03:12;;;;;;;5.25;2.42;;;6.00;99.90;;;7.06;100.00;99654.03;4899307;29;20052;-81
2021/12/01 04:05:39;;;;;;;2.88;2.13;;;6.10;99.90;;;7.18;100.00;99655.56;4868401;29;20056;-79
2021/12/01 04:08:08;;;;;;;3.95;2.47;;;5.60;99.90;;;7.19;100.00;99638.97;4898898;29;20517;-81
2021/12/01 04:10:35;;;;;;;2.85;2.20;;;6.10;99.90;;;7.10;100.00;99633.91;4899659;29;20107;-80
2021/12/01 04:13:03;;;;;;;5.68;2.58;;;6.10;99.90;;;7.17;100.00;99629.41;4882775;29;20036;-79
2021/12/01 04:15:30;;;;;;;3.95;2.40;;;7.80;99.90;;;7.30;100.00;99615.16;4883939;29;20568;-79
2021/12/01 04:17:57;;;;;;;2.38;2.17;;;6.10;99.90;;;7.42;100.00;99603.53;4891395;29;20113;-80
2021/12/01 04:20:24;;;;;;;3.92;2.33;;;6.10;99.90;;;7.51;100.00;99610.31;4880451;29;20051;-79
2021/12/01 04:22:51;;;;;;;2.30;2.03;;;7.40;99.90;;;7.59;100.00;99602.28;4869446;29;20063;-79
2021/12/01 04:25:18;;;;;;;4.43;2.38;;;8.10;99.90;;;7.42;100.00;99611.41;4883482;29;20055;-79
2021/12/01 04:27:46;;;;;;;4.18;2.20;;;5.90;99.90;;;7.64;100.00;99590.81;4899597;29;20045;-80
2021/12/01 04:30:19;;;;;;;2.30;1.90;;;6.40;99.90;;;7.95;100.00;99591.78;4868382;29;20071;-79
2021/12/01 04:32:46;;;;;;;2.40;1.98;;;6.30;99.90;;;7.65;100.00;99600.38;4897012;29;20044;-79
2021/12/01 04:35:16;;;;;;;3.40;2.00;;;6.20;99.90;;;7.78;100.00;99584.38;4846238;29;20053;-79
2021/12/01 04:37:47;;;;;;;2.85;1.90;;;8.10;99.90;;;7.70;100.00;99574.09;4846459;29;20055;-77
2021/12/01 04:40:14;;;;;;;;;;;6.40;99.90;;;7.81;100.00;99558.09;4846445;29;20421;-80
2021/12/01 04:42:41;;;;;;;3.47;1.83;;;8.30;99.90;;;7.72;100.00;99560.94;4845519;29;19927;-79
2021/12/01 04:45:18;;;;;;;6.45;2.08;;;6.40;99.90;;;7.93;100.00;99559.53;4846368;29;20056;-78
2021/12/01 04:47:52;;;;;;;2.40;2.03;;;6.40;99.90;;;7.93;100.00;99560.41;4846605;29;20055;-79
2021/12/01 04:50:27;;;;;;;3.45;1.80;;;6.30;99.90;;;8.13;100.00;99540.66;4861695;29;20051;-79
2021/12/01 04:52:57;;;;;;;3.22;1.58;;;8.60;99.90;;;7.97;100.00;99532.38;4846141;29;20084;-78
2021/12/01 04:55:26;;;;;;;2.80;1.85;;;6.60;99.90;;;8.03;100.00;99526.09;4846132;29;20090;-78
2021/12/01 04:57:54;;;;;;;2.00;1.75;;;6.80;99.90;;;8.04;100.00;99498.97;4846058;29;20045;-79
2021/12/01 05:00:28;;;;;;;2.50;1.80;;;6.10;99.90;;;7.98;100.00;99502.66;4861540;29;20056;-78
2021/12/01 05:02:56;;;;;;;2.25;1.70;;;8.40;99.90;;;7.87;100.00;99500.31;4845827;29;20061;-79
2021/12/01 05:05:37;;;;;;;5.43;2.05;;;6.50;99.90;;;7.83;100.00;99482.13;4857670;29;20712;-79
2021/12/01 05:08:05;;;;;;;2.95;1.90;;;6.60;99.90;;;7.82;100.00;99485.66;4845999;29;20077;-80
2021/12/01 05:10:32;;;;;;;4.18;1.80;;;6.50;99.90;;;7.71;100.00;99471.06;4846063;29;20060;-79
2021/12/01 05:12:59;;;;;;;1.63;1.25;;;8.60;99.90;;;8.22;100.00;99456.56;4846382;29;20056;-79
2021/12/01 05:15:26;;;;;;;2.47;1.45;;;6.60;99.90;;;7.68;100.00;99451.94;4845620;29;20053;-78
2021/12/01 05:17:53;;;;;;;1.95;1.40;;;6.70;99.90;;;8.21;100.00;99447.00;4861526;29;20517;-77
2021/12/01 05:20:20;;;;;;;1.60;1.40;;;8.80;99.90;;;8.31;100.00;99438.84;4862410;29;20052;-77
2021/12/01 05:22:47;;;;;;;3.58;1.45;;;6.70;99.90;;;8.32;100.00;99428.31;4893132;29;20477;-75
2021/12/01 05:25:14;;;;;;;2.13;1.38;;;8.60;99.90;;;8.38;100.00;99422.03;4861020;29;20095;-75
2021/12/01 05:27:41;;;;;;;1.77;1.33;;;6.70;99.90;;;8.37;100.00;99417.72;4874326;29;20041;-76
2021/12/01 05:30:09;;;;;;;2.08;1.30;;;6.80;99.90;;;7.92;100.00;99429.47;4893107;29;20048;-76
2021/12/01 05:32:36;;;;;;;2.00;1.40;;;6.80;99.90;;;7.79;100.00;99421.94;4875184;29;20052;-76
2021/12/01 05:35:04;;;;;;;2.28;1.58;;;6.80;99.90;;;8.35;100.00;99419.50;4894256;29;20418;-76
2021/12/01 05:37:31;;;;;;;2.67;1.35;;;6.80;99.90;;;8.47;100.00;99398.16;4876449;29;20060;-76
2021/12/01 05:39:58;;;;;;;2.25;1.08;;;6.90;99.90;;;8.00;100.00;99395.19;4864262;29;20049;-75
2021/12/01 05:42:25;;;;;;;3.17;1.40;;;6.90;99.90;;;8.00;100.00;99416.16;4876271;29;20048;-76
2021/12/01 05:44:53;;;;;;;4.22;1.40;;;6.90;99.90;;;7.88;100.00;99418.25;4860878;29;20049;-79
2021/12/01 05:47:20;;;;;;;2.33;1.38;;;7.30;99.90;;;8.53;100.00;99418.13;4863791;29;20051;-78
2021/12/01 05:49:47;;;;;;;2.42;1.40;;;7.40;99.90;;;8.16;100.00;99409.56;4889042;29;20044;-79
2021/12/01 05:52:16;;;;;;;4.03;1.20;;;7.10;99.90;;;8.25;100.00;99416.28;4860055;29;20076;-79
2021/12/01 05:54:44;;;;;;;2.20;1.30;;;7.00;99.90;;;8.27;100.00;99405.78;4851314;29;20414;-79
2021/12/01 05:57:12;;;;;;;4.03;2.85;;;7.20;99.90;;;8.63;100.00;99409.06;4865922;29;20084;-79
2021/12/01 05:59:44;;;;;;;1.48;1.23;;;7.10;99.90;;;8.85;100.00;99415.41;4870674;29;20104;-79
2021/12/01 06:02:12;;;;;;;2.22;1.27;;;7.10;99.90;;;8.65;100.00;99446.59;4868050;29;20049;-79
2021/12/01 06:04:39;;;;;;;1.85;1.42;;;7.20;99.90;;;8.58;100.00;99405.72;4880135;29;20447;-79
2021/12/01 06:07:06;;;;;;;1.58;1.45;;;8.30;99.90;;;8.87;100.00;99408.34;4867602;29;20481;-79
2021/12/01 06:09:34;;;;;;;1.60;1.23;;;7.10;99.90;;;8.85;100.00;99404.91;4885314;29;20405;-79
2021/12/01 06:12:01;;;;;;;1.30;1.20;;;8.70;99.90;;;8.18;100.00;99409.53;4869750;29;20040;-79
2021/12/01 06:14:28;;;;;;;1.63;1.30;;;7.20;99.90;;;8.29;100.00;99403.97;4869145;29;20052;-78
2021/12/01 06:16:55;;;;;;;3.30;1.60;;;8.40;99.90;;;8.32;100.00;99386.38;4863637;29;20053;-79
2021/12/01 06:19:22;;;;;;;4.43;1.17;;;8.70;99.90;;;8.45;100.00;99386.84;4865905;29;20044;-79
2021/12/01 06:21:49;;;;;;;3.65;1.20;;;7.20;99.90;;;8.35;100.00;99374.94;4867247;29;20044;-78
2021/12/01 06:24:16;;;;;;;1.85;1.30;;;7.30;99.90;;;8.43;100.00;99369.44;4866295;29;20079;-78
2021/12/01 06:26:43;;;;;;;2.28;1.30;;;9.80;99.90;;;8.52;100.00;99361.34;4867970;29;20095;-78
2021/12/01 06:29:10;;;;;;;2.72;1.33;;;9.70;99.90;;;8.80;100.00;99377.03;4886038;29;20820;-78
2021/12/01 06:31:37;;;;;;;2.95;1.33;;;7.10;99.90;;;8.26;100.00;99368.22;4857937;29;20056;-78
2021/12/01 06:34:05;;;;;;;1.20;1.10;;;7.60;99.90;;;8.43;100.00;99357.22;4873379;29;20131;-78
2021/12/01 06:36:32;;;;;;;1.70;1.30;;;7.60;99.90;;;8.38;100.00;99351.28;4881877;29;20052;-76
2021/12/01 06:38:59;;;;;;;3.30;1.48;;;7.20;99.90;;;8.39;100.00;99376.56;4883441;29;20056;-78
2021/12/01 06:41:26;;;;;;;2.25;1.33;;;7.20;99.90;;;8.84;100.00;99356.81;4885855;29;20063;-79
2021/12/01 06:43:53;;;;;;;1.42;1.10;;;8.80;99.90;;;8.83;100.00;99362.13;4901775;29;20051;-79
2021/12/01 06:46:22;;;;;;;2.03;1.25;;;9.00;99.90;;;9.00;100.00;99351.06;4885724;29;20044;-79
2021/12/01 06:48:49;;;;;;;2.75;1.23;;;7.20;99.90;;;9.00;100.00;99346.69;4899704;29;20055;-78
2021/12/01 06:51:17;;;;;;;2.63;1.38;;;7.60;99.90;;;8.47;100.00;99332.63;4884901;29;20072;-78
2021/12/01 06:53:44;;;;;;;2.13;1.40;;;8.80;99.90;;;8.36;100.00;99326.88;4901846;29;20036;-79
2021/12/01 06:56:11;;;;;;;1.60;1.00;;;8.00;99.90;;;8.40;100.00;99336.34;4871129;29;20055;-79
2021/12/01 06:58:39;;;;;;;1.30;1.20;;;9.30;99.90;;;8.92;100.00;99323.34;4886624;29;20082;-79
2021/12/01 07:01:07;;;;;;;1.70;1.08;;;7.90;99.90;;;9.09;100.00;99329.75;4886746;29;20044;-79
2021/12/01 07:03:39;;;;;;;1.15;1.02;;;7.40;99.90;;;8.51;100.00;99302.81;4887003;29;20517;-78
2021/12/01 07:06:06;;;;;;;3.30;1.33;;;7.40;99.90;;;9.03;100.00;99304.59;4885988;29;20505;-78
2021/12/01 07:08:35;;;;;;;2.53;1.75;;;7.40;99.90;;;9.05;100.00;99299.28;4902565;29;20514;-78
2021/12/01 07:11:04;;;;;;;1.10;1.00;;;7.40;99.90;;;9.08;100.00;99293.94;4871068;29;20045;-78
2021/12/01 07:13:33;;;;;;;2.20;1.30;;;7.40;99.90;;;9.07;100.00;99287.81;4886936;29;20129;-79
2021/12/01 07:16:02;;;;;;;1.67;1.00;;;7.40;99.90;;;9.22;100.00;99277.69;4918517;29;20052;-79
2021/12/01 07:18:29;;;;;;;1.83;1.30;;;7.40;99.90;;;9.10;100.00;99288.63;4871277;29;20103;-79
2021/12/01 07:20:58;;;;;;;3.28;1.20;;;9.30;99.90;;;9.17;100.00;99256.84;4886990;29;20155;-79
2021/12/01 07:23:25;;;;;;;1.30;1.20;;;7.40;99.90;;;9.20;100.00;99263.78;4899967;29;20130;-78
2021/12/01 07:26:03;;;;;;;1.75;1.10;;;7.90;99.90;;;9.36;100.00;99270.19;4887175;29;20553;-79
2021/12/01 07:28:31;;;;;;;2.03;1.15;;;7.50;99.90;;;9.24;100.00;99247.00;4884981;29;20386;-78
2021/12/01 07:30:59;;;;;;;2.17;1.17;;;7.50;99.90;;;9.15;100.00;99242.09;4884743;29;20071;-79
2021/12/01 07:33:29;;;;;;;;;;;7.60;99.90;;;9.35;100.00;99242.22;4886896;29;20520;-78
2021/12/01 07:35:56;;;;;;;2.40;1.05;;;7.50;99.90;;;9.14;100.00;99225.47;4900705;29;20017;-79
2021/12/01 07:38:23;;;;;;;1.80;1.23;;;8.70;99.90;;;8.98;100.00;99232.19;4884123;29;20805;-77
2021/12/01 07:40:50;;;;;;;3.00;1.92;;;8.00;99.90;;;9.24;100.00;99219.91;4899616;29;20841;-78
2021/12/01 07:43:17;;;;;;;3.03;1.50;;;7.60;99.90;;;9.28;100.00;99211.00;4900437;29;20036;-78
2021/12/01 07:45:45;;;;;;;2.55;1.67;;;9.20;99.90;;;9.06;100.00;99217.88;4892458;29;20041;-77
2021/12/01 07:48:13;;;;;;;1.15;1.05;;;7.60;99.90;;;9.36;100.00;99201.06;4873082;29;20055;-78
2021/12/01 07:50:41;;;;;;;1.10;1.00;;;8.90;99.90;;;9.44;100.00;99208.63;4862876;29;20116;-78
2021/12/01 07:53:09;;;;;;;2.22;1.15;;;9.40;99.90;;;9.49;100.00;99198.84;4863830;29;20075;-78
2021/12/01 07:55:38;;;;;;;3.70;1.73;;;8.90;99.90;;;9.33;100.00;99206.41;4866383;29;20056;-78
2021/12/01 07:58:06;;;;;;;1.02;1.00;;;8.90;99.90;;;9.56;100.00;99188.94;4881318;29;20099;-76
2021/12/01 08:00:33;;;;;;;3.42;1.38;;;7.80;99.90;;;9.43;100.00;99184.16;4846241;29;20139;-76
2021/12/01 08:03:00;;;;;;;0.80;0.80;;;7.90;99.90;;;9.38;100.00;99198.38;4878525;29;20048;-76
2021/12/01 08:05:27;;;;;;;2.25;1.10;;;7.80;99.90;;;9.50;100.00;99176.91;4864286;29;20053;-78
2021/12/01 08:07:55;;;;;;;1.52;1.27;;;7.90;99.90;;;9.56;100.00;99170.56;4863493;29;20053;-76
2021/12/01 08:10:23;;;;;;;1.65;1.42;;;7.80;99.90;;;9.62;100.00;99165.94;4879464;29;20451;-77
2021/12/01 08:12:50;;;;;;;1.98;1.05;;;7.80;99.90;;;9.57;100.00;99162.63;4878731;29;20111;-76
2021/12/01 08:15:21;;;;;;;1.00;0.90;;;7.90;99.90;;;9.34;100.00;99155.63;4878870;29;20044;-77
2021/12/01 08:17:48;;;;;;;1.90;1.53;;;7.90;99.90;;;9.44;100.00;99153.50;4862243;29;20064;-76
2021/12/01 08:20:15;;;;;;;2.05;1.38;;;9.70;99.90;;;9.13;100.00;99152.91;4845447;29;20056;-77
2021/12/01 08:22:42;;;;;;;1.48;1.38;;;8.10;99.90;;;9.16;100.00;99146.72;4893462;29;20044;-76
2021/12/01 08:25:09;;;;;;;1.48;1.00;;;8.00;99.90;;;9.14;100.00;99140.66;4843306;29;20056;-75
2021/12/01 08:27:37;;;;;;;10.48;4.47;;;8.50;99.90;;;9.18;100.00;99139.63;4843837;29;20459;-74
2021/12/01 08:30:06;;;;;;;6.00;1.75;;;8.00;99.90;;;9.25;100.00;99135.84;4860759;29;20570;-73
2021/12/01 08:32:33;;;;;;;2.95;1.60;;;8.00;99.90;;;9.13;100.00;99125.81;4848867;29;20052;-74
2021/12/01 08:35:00;;;;;;;2.03;1.60;;;8.00;99.90;;;9.61;100.00;99121.34;4898255;29;20051;-74
2021/12/01 08:37:28;;;;;;;2.95;2.20;;;8.00;99.90;;;9.61;100.00;99134.47;4904414;29;20044;-74
2021/12/01 08:39:55;;;;;;;3.38;1.90;;;8.00;99.90;;;9.03;100.00;99131.41;4914181;29;20709;-74
2021/12/01 08:42:24;;;;;;;4.10;1.77;;;8.10;99.90;;;9.32;100.00;99104.97;4880984;29;20505;-74
2021/12/01 08:44:52;;;;;;;4.40;1.70;;;8.00;99.90;;;9.38;100.00;99102.13;4896418;29;20065;-74
2021/12/01 08:47:26;;;;;;;3.20;1.90;;;8.10;99.90;;;9.35;100.00;99103.09;4890821;29;20044;-73
2021/12/01 08:49:53;;;;;;;2.08;1.10;;;8.10;99.90;;;9.07;100.00;99104.16;4892849;29;20052;-74
2021/12/01 08:52:23;;;;;;;2.00;1.38;;;8.10;99.90;;;9.26;100.00;99081.59;4873902;29;20045;-76
2021/12/01 08:54:51;;;;;;;2.20;1.38;;;8.20;99.90;;;9.21;100.00;99076.53;4873511;29;20041;-75
2021/12/01 08:57:19;;;;;;;2.40;1.80;;;8.10;99.90;;;9.39;100.00;99088.06;4862146;29;20140;-75
2021/12/01 08:59:48;;;;;;;2.53;2.00;;;8.70;99.90;;;9.33;100.00;99069.94;4871251;29;20075;-75
2021/12/01 09:02:15;;;;;;;3.65;2.08;;;8.30;99.90;;;9.66;100.00;99074.72;4847654;29;20387;-74
2021/12/01 09:04:45;;;;;;;1.80;1.00;;;8.50;99.90;;;9.42;100.00;99051.19;4892272;29;20063;-75
2021/12/01 09:07:12;;;;;;;2.60;1.63;;;8.20;99.90;;;9.58;100.00;99059.28;4876625;29;20437;-74
2021/12/01 09:09:39;;;;;;;2.60;1.38;;;8.30;99.90;;;9.84;100.00;99069.66;4876424;29;20124;-73
2021/12/01 09:12:07;;;;;;;3.40;1.45;;;8.40;99.90;;;10.05;100.00;99031.06;4877801;29;20709;-75
2021/12/01 09:14:35;;;;;;;1.67;1.30;;;8.30;99.90;;;9.98;100.00;99035.75;4863319;29;20059;-74
2021/12/01 09:17:02;;;;;;;1.20;1.10;;;8.40;99.90;;;9.96;100.00;99042.84;4868491;29;20041;-73
2021/12/01 09:19:30;;;;;;;1.23;1.10;;;8.40;99.90;;;9.69;100.00;99045.72;4875693;29;20443;-75
2021/12/01 09:21:57;;;;;;;1.23;1.00;;;8.50;99.90;;;9.74;100.00;99035.88;4876631;29;20100;-74
2021/12/01 09:24:25;;;;;;;1.17;1.08;;;8.50;99.90;;;9.90;100.00;99035.22;4876480;29;20499;-75
2021/12/01 09:26:52;;;;;;;1.65;1.17;;;8.60;99.90;;;9.99;100.00;99019.09;4878047;29;20429;-75
2021/12/01 09:29:20;;;;;;;1.52;1.20;;;8.60;99.90;;;9.98;100.00;99030.50;4876461;29;20040;-75
2021/12/01 09:31:47;;;;;;;2.03;1.10;;;8.70;99.90;;;10.07;100.00;99011.69;4875087;29;20044;-75
2021/12/01 09:34:15;;;;;;;1.08;0.88;;;8.80;99.90;;;10.26;100.00;99010.06;4895418;29;20104;-75
2021/12/01 09:36:42;;;;;;;3.72;0.90;;;9.10;99.90;;;10.18;100.00;98998.09;4880318;29;20099;-75
2021/12/01 09:39:09;;;;;;;2.28;0.90;;;8.90;99.90;;;10.31;100.00;99000.19;4881494;29;20684;-75
2021/12/01 09:41:37;;;;;;;1.88;1.20;;;9.50;99.90;;;10.23;100.00;98976.84;4873003;29;20436;-74
2021/12/01 09:44:04;;;;;;;2.50;1.20;;;9.00;99.90;;;10.35;100.00;98997.34;4882586;29;20082;-75
2021/12/01 09:46:32;;;;;;;3.08;1.58;;;9.00;99.90;;;10.28;100.00;98971.41;4897690;29;20092;-75
2021/12/01 09:48:59;;;;;;;2.50;0.88;;;9.10;99.90;;;10.29;100.00;98992.34;4897935;29;20100;-75
2021/12/01 09:51:27;;;;;;;1.70;1.30;;;9.10;99.90;;;10.34;100.00;98987.75;4883072;29;20066;-75
2021/12/01 09:53:55;;;;;;;1.25;1.15;;;9.70;99.90;;;10.46;100.00;98962.69;4883335;29;20052;-77
2021/12/01 09:56:24;;;;;;;2.22;1.00;;;9.10;99.90;;;10.74;100.00;98961.41;4897574;29;20048;-76
2021/12/01 09:58:51;;;;;;;0.90;0.90;;;9.20;99.90;;;10.78;100.00;98965.59;4897825;29;20052;-76
2021/12/01 10:01:22;;;;;;;0.80;0.77;;;9.20;99.90;;;10.72;100.00;98967.66;4897673;29;20048;-77
2021/12/01 10:03:51;;;;;;;1.00;1.00;;;9.50;99.90;;;10.89;100.00;98956.34;4897583;29;20087;-75
2021/12/01 10:06:22;;;;;;;3.08;1.33;;;9.40;99.90;;;10.55;100.00;98961.41;4897226;29;20054;-76
2021/12/01 10:08:53;;;;;;;1.80;1.20;;;9.40;99.90;;;10.62;100.00;98943.56;4903925;29;20058;-76
2021/12/01 10:11:27;;;;;;;1.70;1.30;;;9.30;99.90;;;10.62;100.00;98946.19;4887619;29;20072;-76
2021/12/01 10:13:58;;;;;;;0.82;0.82;;;9.20;99.90;;;10.32;100.00;98923.88;4843925;29;20526;-75
2021/12/01 10:16:35;;;;;;;4.00;1.42;;;9.20;99.90;;;10.36;100.00;98920.19;4861687;29;20049;-77
2021/12/01 10:19:07;;;;;;;1.55;1.30;;;9.00;99.90;;;10.47;100.00;98919.69;4876008;29;20067;-77
2021/12/01 10:21:41;;;;;;;2.20;1.50;;;8.90;99.90;;;10.66;100.00;98912.72;4889189;29;20077;-75
2021/12/01 10:24:14;;;;;;;1.63;1.42;;;8.90;99.90;;;10.61;100.00;98903.28;4864782;29;20124;-79
2021/12/01 10:26:48;;;;;;;3.53;1.67;;;8.80;99.90;;;10.51;100.00;98902.00;4868884;29;20072;-77
2021/12/01 10:29:27;;;;;;;2.45;1.50;;;8.80;99.90;;;10.69;100.00;98881.84;4848429;29;20372;-77
2021/12/01 10:31:59;;;;;;;1.40;1.30;;;8.90;99.90;;;10.74;100.00;98884.25;4847874;29;20129;-76
2021/12/01 10:34:40;;;;;;;1.60;1.17;;;8.80;99.90;;;10.80;100.00;98868.19;4852410;29;20676;-77
2021/12/01 10:37:22;;;;;;;;;;;8.90;99.90;;;10.72;100.00;98873.81;4849666;29;20156;-78
2021/12/01 10:40:12;;;;;;;2.85;1.13;;;8.90;99.90;;;10.80;100.00;98860.31;4879446;29;19927;-78